Time;durP1;ratioP1;P1;durP2;ratioP2;P2;SDS_P1;SDS_P2;PMS_P1;PMS_P2;Temp;Humidity;BMP_temperature;BMP_pressure;BME280_temperature;BME280_humidity;BME280_pressure;Samples;Min_cycle;Max_cycle;Signal;HPM_P1;HPM_P2
2021/08/26 00:05:43;;;;;;;15.65;2.42;;;19.40;79.50;;;;;;5013179;28;20118;-74
2021/08/26 00:06:27;;;;;;;6.32;2.03;;;19.30;79.60;;;;;;4998184;28;20504;-74
2021/08/26 00:08:55;;;;;;;9.40;1.90;;;19.30;79.20;;;;;;5010144;28;20029;-74
2021/08/26 00:11:23;;;;;;;13.85;2.00;;;19.30;79.90;;;;;;5014738;28;20057;-74
2021/08/26 00:13:51;;;;;;;14.88;2.10;;;19.30;79.30;;;;;;5017291;28;20038;-74
2021/08/26 00:16:24;;;;;;;14.50;2.10;;;19.30;79.50;;;;;;5014176;28;20492;-74
2021/08/26 00:18:49;;;;;;;11.52;1.80;;;19.30;79.70;;;;;;5014460;28;20388;-74
2021/08/26 00:21:15;;;;;;;16.15;2.33;;;19.30;79.60;;;;;;5012937;28;20021;-74
2021/08/26 00:23:41;;;;;;;6.47;1.40;;;19.30;79.60;;;;;;5006771;28;20046;-74
2021/08/26 00:26:07;;;;;;;11.93;2.13;;;19.30;79.90;;;;;;5010311;28;20054;-74
2021/08/26 00:28:33;;;;;;;12.30;1.92;;;19.40;80.60;;;;;;5002766;28;20038;-74
2021/08/26 00:30:59;;;;;;;5.20;1.52;;;19.30;80.30;;;;;;5015779;28;20037;-74
2021/08/26 00:33:27;;;;;;;9.43;1.80;;;19.30;80.80;;;;;;5014097;28;20079;-74
2021/08/26 00:35:53;;;;;;;8.52;1.45;;;19.30;80.70;;;;;;5015109;28;20033;-74
2021/08/26 00:38:21;;;;;;;11.27;1.98;;;19.30;80.70;;;;;;5014291;28;20022;-74
2021/08/26 00:40:47;;;;;;;15.52;2.33;;;19.20;80.40;;;;;;5014653;28;20049;-74
2021/08/26 00:43:13;;;;;;;16.23;2.70;;;19.20;80.00;;;;;;5013821;28;20053;-74
2021/08/26 00:45:40;;;;;;;14.88;2.95;;;19.20;80.10;;;;;;5015275;28;20385;-74
2021/08/26 00:48:08;;;;;;;13.75;2.58;;;19.30;80.40;;;;;;5015221;28;20432;-74
2021/08/26 00:50:34;;;;;;;12.45;2.08;;;19.20;80.40;;;;;;5009095;28;20065;-74
2021/08/26 00:53:00;;;;;;;9.93;2.05;;;19.20;80.50;;;;;;5006696;28;20030;-74
2021/08/26 00:55:26;;;;;;;11.10;2.85;;;19.20;80.50;;;;;;5011967;28;20037;-74
2021/08/26 00:57:53;;;;;;;7.22;1.52;;;19.20;80.20;;;;;;5002310;28;20041;-75
2021/08/26 01:00:19;;;;;;;12.60;2.20;;;19.20;80.10;;;;;;5001953;28;20034;-75
2021/08/26 01:03:11;;;;;;;8.70;2.05;;;19.20;80.10;;;;;;5014331;28;20045;-75
2021/08/26 01:05:51;;;;;;;16.13;2.28;;;19.30;80.00;;;;;;5005011;28;20036;-75
2021/08/26 01:08:40;;;;;;;9.63;2.15;;;19.30;80.20;;;;;;5010881;28;20038;-75
2021/08/26 01:11:06;;;;;;;15.70;2.00;;;19.20;80.30;;;;;;5012368;28;20052;-75
2021/08/26 01:13:40;;;;;;;11.18;2.40;;;19.20;80.30;;;;;;5014507;28;20381;-75
2021/08/26 01:16:08;;;;;;;16.83;2.47;;;19.30;80.30;;;;;;5001883;28;20400;-75
2021/08/26 01:18:38;;;;;;;22.55;2.88;;;19.20;80.40;;;;;;5014262;28;20034;-75
2021/08/26 01:21:07;;;;;;;15.68;2.70;;;19.30;80.60;;;;;;5015446;28;20044;-75
2021/08/26 01:23:35;;;;;;;15.40;2.38;;;19.20;80.70;;;;;;5014712;28;20042;-75
2021/08/26 01:26:04;;;;;;;12.98;2.20;;;19.20;80.90;;;;;;5013060;28;20069;-75
2021/08/26 01:28:34;;;;;;;9.95;2.42;;;19.10;81.10;;;;;;5015169;28;20040;-75
2021/08/26 01:31:01;;;;;;;12.20;1.70;;;19.10;80.90;;;;;;5014556;28;20478;-75
2021/08/26 01:33:27;;;;;;;14.38;2.60;;;19.10;81.00;;;;;;4995246;28;20049;-75
2021/08/26 01:35:53;;;;;;;13.02;2.17;;;19.10;81.20;;;;;;4995834;28;20035;-75
2021/08/26 01:38:23;;;;;;;10.73;2.40;;;19.10;81.20;;;;;;4999266;28;20022;-75
2021/08/26 01:40:49;;;;;;;10.38;1.90;;;19.10;81.20;;;;;;5013387;28;20034;-75
2021/08/26 01:43:16;;;;;;;10.40;2.05;;;19.10;81.20;;;;;;5001387;28;20074;-75
2021/08/26 01:45:46;;;;;;;7.85;1.67;;;19.00;81.10;;;;;;5007357;28;20061;-75
2021/08/26 01:48:16;;;;;;;12.07;2.13;;;19.00;81.10;;;;;;5007440;28;20049;-75
2021/08/26 01:50:49;;;;;;;21.40;2.72;;;19.10;81.00;;;;;;5001701;28;20033;-75
2021/08/26 01:53:15;;;;;;;14.98;2.65;;;19.00;81.00;;;;;;5013242;28;20033;-75
2021/08/26 01:55:42;;;;;;;22.50;4.05;;;19.00;81.00;;;;;;5014717;28;20116;-75
2021/08/26 01:58:09;;;;;;;15.93;3.92;;;19.00;81.20;;;;;;5012489;28;20381;-75
2021/08/26 02:00:35;;;;;;;12.55;2.17;;;19.00;82.20;;;;;;5012286;28;20087;-75
2021/08/26 02:03:02;;;;;;;16.02;2.83;;;19.00;82.40;;;;;;5012910;28;20496;-75
2021/08/26 02:05:27;;;;;;;13.48;2.55;;;18.90;82.50;;;;;;5012161;28;20026;-75
2021/08/26 02:07:54;;;;;;;12.63;2.08;;;18.90;82.50;;;;;;5001603;28;20544;-75
2021/08/26 02:10:20;;;;;;;15.93;3.05;;;18.90;82.70;;;;;;5002024;28;20044;-75
2021/08/26 02:12:45;;;;;;;15.60;2.35;;;18.80;82.90;;;;;;5011844;28;20022;-75
2021/08/26 02:15:11;;;;;;;8.07;1.77;;;18.80;82.80;;;;;;5016198;28;20358;-75
2021/08/26 02:17:37;;;;;;;12.43;2.20;;;18.90;82.80;;;;;;5013149;28;20489;-75
2021/08/26 02:20:05;;;;;;;13.10;2.60;;;18.90;82.70;;;;;;5012806;28;20036;-75
2021/08/26 02:22:31;;;;;;;12.82;2.80;;;18.90;82.50;;;;;;5010677;28;20135;-75
2021/08/26 02:24:57;;;;;;;14.05;2.67;;;18.90;82.40;;;;;;5013262;28;20520;-75
2021/08/26 02:27:22;;;;;;;20.33;3.28;;;18.90;82.60;;;;;;5001941;28;20495;-75
2021/08/26 02:29:48;;;;;;;11.10;2.15;;;18.90;82.30;;;;;;5007533;28;20470;-75
2021/08/26 02:32:14;;;;;;;20.10;2.80;;;18.90;81.90;;;;;;5005323;28;20038;-75
2021/08/26 02:34:39;;;;;;;11.63;2.40;;;18.90;81.80;;;;;;5010985;28;20034;-75
2021/08/26 02:37:07;;;;;;;19.15;3.53;;;18.90;82.00;;;;;;4995673;28;20022;-75
2021/08/26 02:39:36;;;;;;;15.90;3.63;;;18.90;82.00;;;;;;5008167;28;20038;-75
2021/08/26 02:42:03;;;;;;;11.48;2.50;;;18.90;82.20;;;;;;5013060;28;20137;-75
2021/08/26 02:44:29;;;;;;;16.67;3.15;;;18.80;82.50;;;;;;5012824;28;20033;-75
2021/08/26 02:46:54;;;;;;;18.27;3.15;;;18.90;82.60;;;;;;5000246;28;20018;-75
2021/08/26 02:49:20;;;;;;;14.00;2.35;;;18.80;82.70;;;;;;5010737;28;20486;-75
2021/08/26 02:51:46;;;;;;;19.38;2.92;;;18.80;82.90;;;;;;5006731;28;20135;-75
2021/08/26 02:54:12;;;;;;;16.08;3.00;;;18.90;83.10;;;;;;5010110;28;20099;-75
2021/08/26 02:56:37;;;;;;;21.13;3.22;;;18.90;82.90;;;;;;5005717;28;20019;-75
2021/08/26 02:59:03;;;;;;;22.02;3.13;;;18.90;82.80;;;;;;5005289;28;20477;-75
2021/08/26 03:01:32;;;;;;;23.40;4.28;;;18.90;82.90;;;;;;5012534;28;20041;-75
2021/08/26 03:03:57;;;;;;;24.90;3.55;;;18.80;83.00;;;;;;5010679;28;20409;-74
2021/08/26 03:06:23;;;;;;;25.33;4.47;;;18.90;83.20;;;;;;5012787;28;20034;-75
2021/08/26 03:08:49;;;;;;;21.80;3.97;;;18.80;83.20;;;;;;5010846;28;20041;-75
2021/08/26 03:11:14;;;;;;;18.60;3.22;;;18.90;83.10;;;;;;5011069;28;20041;-75
2021/08/26 03:13:40;;;;;;;11.55;2.42;;;18.90;82.60;;;;;;5013198;28;20083;-75
2021/08/26 03:16:06;;;;;;;20.42;4.28;;;18.80;82.30;;;;;;4998282;28;20032;-75
2021/08/26 03:18:32;;;;;;;22.08;3.17;;;18.90;82.40;;;;;;5011984;28;20030;-75
2021/08/26 03:20:57;;;;;;;16.52;3.25;;;18.90;82.40;;;;;;5011191;28;20084;-75
2021/08/26 03:23:23;;;;;;;20.95;4.40;;;18.90;82.40;;;;;;5003191;28;20042;-75
2021/08/26 03:25:49;;;;;;;24.08;3.78;;;18.90;82.30;;;;;;5008930;28;20046;-75
2021/08/26 03:28:17;;;;;;;20.50;3.75;;;18.90;82.30;;;;;;4999721;28;20038;-75
2021/08/26 03:30:43;;;;;;;15.82;3.25;;;19.00;82.30;;;;;;5000787;28;20042;-75
2021/08/26 03:33:08;;;;;;;20.08;4.40;;;19.00;82.40;;;;;;5009613;28;20025;-75
2021/08/26 03:35:34;;;;;;;23.38;4.07;;;19.00;82.40;;;;;;5003145;28;20367;-75
2021/08/26 03:38:00;;;;;;;19.77;3.53;;;19.00;82.40;;;;;;5006400;28;20492;-75
2021/08/26 03:40:25;;;;;;;19.63;3.40;;;19.00;82.40;;;;;;5010711;28;20044;-75
2021/08/26 03:42:51;;;;;;;22.77;3.72;;;19.00;82.50;;;;;;5000636;28;20056;-75
2021/08/26 03:45:17;;;;;;;14.60;3.47;;;19.00;82.50;;;;;;4999412;28;20088;-75
2021/08/26 03:47:42;;;;;;;18.55;3.65;;;19.00;82.60;;;;;;4997880;28;20034;-75
2021/08/26 03:50:08;;;;;;;29.95;4.25;;;19.00;82.60;;;;;;4999203;28;20030;-75
2021/08/26 03:52:34;;;;;;;16.30;3.05;;;19.00;82.70;;;;;;5001785;28;20105;-76
2021/08/26 03:54:59;;;;;;;22.67;3.83;;;19.00;82.70;;;;;;5009236;28;20071;-75
2021/08/26 03:57:25;;;;;;;20.58;4.03;;;19.00;82.60;;;;;;5008587;28;20034;-75
2021/08/26 03:59:51;;;;;;;17.58;4.30;;;19.00;82.60;;;;;;5000877;28;20034;-76
2021/08/26 04:02:16;;;;;;;28.20;3.90;;;19.00;82.60;;;;;;5012255;28;20046;-76
2021/08/26 04:04:42;;;;;;;32.97;5.25;;;19.00;82.60;;;;;;5003634;28;20453;-75
2021/08/26 04:07:07;;;;;;;19.58;3.70;;;19.00;82.60;;;;;;5007165;28;20038;-76
2021/08/26 04:09:33;;;;;;;20.13;3.65;;;19.00;82.60;;;;;;5007712;28;20037;-76
2021/08/26 04:11:59;;;;;;;17.30;3.95;;;19.00;82.60;;;;;;5004896;28;20057;-75
2021/08/26 04:14:25;;;;;;;23.95;4.10;;;18.90;82.50;;;;;;5005876;28;20117;-75
2021/08/26 04:16:50;;;;;;;21.40;3.72;;;18.90;82.60;;;;;;5012156;28;20593;-75
2021/08/26 04:19:16;;;;;;;20.73;3.80;;;18.90;82.60;;;;;;5009551;28;20042;-75
2021/08/26 04:21:42;;;;;;;20.65;3.28;;;19.00;82.60;;;;;;5001898;28;20037;-75
2021/08/26 04:24:08;;;;;;;17.77;3.38;;;18.90;82.40;;;;;;4998664;28;20375;-76
2021/08/26 04:26:33;;;;;;;16.92;3.67;;;18.90;82.40;;;;;;5011384;28;20046;-75
2021/08/26 04:28:59;;;;;;;21.10;3.92;;;18.90;82.30;;;;;;5011044;28;20088;-76
2021/08/26 04:31:25;;;;;;;17.65;3.50;;;18.90;82.20;;;;;;5007924;28;20037;-75
2021/08/26 04:33:50;;;;;;;24.48;5.90;;;18.90;82.20;;;;;;5001448;28;20404;-76
2021/08/26 04:36:16;;;;;;;13.98;3.15;;;18.80;82.00;;;;;;5007784;28;20040;-83
2021/08/26 04:38:42;;;;;;;15.45;2.78;;;18.80;82.00;;;;;;5003732;28;20105;-85
2021/08/26 04:41:07;;;;;;;20.58;3.70;;;18.80;82.00;;;;;;4995187;28;20587;-77
2021/08/26 04:43:33;;;;;;;18.67;3.35;;;18.80;82.00;;;;;;5006810;28;20061;-76
2021/08/26 04:45:58;;;;;;;26.73;4.15;;;18.80;82.00;;;;;;5005877;28;20056;-77
2021/08/26 04:48:24;;;;;;;27.60;4.75;;;18.70;81.90;;;;;;5012263;28;20022;-76
2021/08/26 04:50:50;;;;;;;23.77;4.47;;;18.70;82.00;;;;;;5007895;28;20116;-82
2021/08/26 04:53:15;;;;;;;16.63;3.55;;;18.70;82.00;;;;;;5000619;28;20470;-81
2021/08/26 04:55:42;;;;;;;17.50;3.60;;;18.70;81.90;;;;;;5009208;28;20022;-80
2021/08/26 04:58:07;;;;;;;26.05;3.60;;;18.70;82.00;;;;;;5002846;28;20722;-80
2021/08/26 05:00:33;;;;;;;26.42;4.97;;;18.70;82.00;;;;;;5005782;28;20029;-84
2021/08/26 05:02:59;;;;;;;25.40;4.35;;;18.70;82.00;;;;;;5000975;28;20049;-82
2021/08/26 05:05:24;;;;;;;29.55;3.90;;;18.60;82.10;;;;;;5008584;28;20022;-84
2021/08/26 05:07:50;;;;;;;21.42;3.50;;;18.60;82.10;;;;;;5008310;28;20029;-84
2021/08/26 05:10:16;;;;;;;29.67;4.20;;;18.60;82.00;;;;;;5000882;28;20117;-77
2021/08/26 05:12:42;;;;;;;16.60;3.28;;;18.60;82.00;;;;;;5002166;28;20121;-78
2021/08/26 05:15:07;;;;;;;14.68;2.85;;;18.50;81.80;;;;;;5009212;28;20072;-77
2021/08/26 05:17:33;;;;;;;13.40;3.72;;;18.50;81.70;;;;;;5007540;28;20026;-77
2021/08/26 05:19:59;;;;;;;13.77;3.17;;;18.50;81.70;;;;;;5012049;28;20053;-77
2021/08/26 05:22:24;;;;;;;18.27;3.03;;;18.50;81.80;;;;;;5010489;28;20062;-77
2021/08/26 05:24:51;;;;;;;11.32;3.13;;;18.50;81.80;;;;;;5006467;28;20504;-77
2021/08/26 05:27:18;;;;;;;10.88;3.42;;;18.40;81.70;;;;;;5002501;28;20030;-78
2021/08/26 05:29:44;;;;;;;23.35;3.58;;;18.40;81.90;;;;;;5003559;28;20036;-84
2021/08/26 05:32:10;;;;;;;18.00;3.05;;;18.40;82.10;;;;;;4999391;28;20027;-75
2021/08/26 05:34:36;;;;;;;18.27;3.45;;;18.40;82.30;;;;;;5001870;28;20042;-82
2021/08/26 05:37:01;;;;;;;11.35;2.92;;;18.30;82.40;;;;;;5008714;28;20026;-84
2021/08/26 05:39:27;;;;;;;15.30;3.50;;;18.30;82.50;;;;;;5009347;28;20037;-75
2021/08/26 05:41:53;;;;;;;19.50;3.10;;;18.40;82.80;;;;;;5011936;28;20033;-75
2021/08/26 05:44:19;;;;;;;16.40;3.40;;;18.30;82.90;;;;;;5010611;28;20041;-74
2021/08/26 05:46:45;;;;;;;20.23;3.75;;;18.30;83.10;;;;;;5001198;28;20184;-74
2021/08/26 05:49:11;;;;;;;16.95;3.58;;;18.30;83.30;;;;;;5006195;28;20038;-75
2021/08/26 05:51:37;;;;;;;24.02;3.20;;;18.30;83.60;;;;;;5012678;28;20030;-75
2021/08/26 05:54:03;;;;;;;17.92;4.82;;;18.30;83.80;;;;;;5005620;28;20100;-75
2021/08/26 05:56:30;;;;;;;17.63;3.70;;;18.30;84.10;;;;;;5009242;28;20026;-75
2021/08/26 05:58:55;;;;;;;26.70;4.55;;;18.30;84.50;;;;;;5007774;28;20029;-75
2021/08/26 06:01:21;;;;;;;23.90;3.95;;;18.30;84.70;;;;;;5012746;28;20389;-75
2021/08/26 06:03:47;;;;;;;27.83;4.18;;;18.30;85.10;;;;;;5004005;28;20127;-74
2021/08/26 06:06:13;;;;;;;29.33;5.20;;;18.30;85.20;;;;;;5009960;28;20076;-74
2021/08/26 06:08:38;;;;;;;21.13;3.50;;;18.30;85.40;;;;;;5012989;28;20036;-74
2021/08/26 06:11:04;;;;;;;17.45;3.78;;;18.40;85.80;;;;;;5013955;28;20032;-81
2021/08/26 06:13:30;;;;;;;20.60;3.55;;;18.40;86.30;;;;;;4998668;28;20040;-80
2021/08/26 06:15:56;;;;;;;24.60;4.30;;;18.40;86.40;;;;;;4999303;28;20069;-79
2021/08/26 06:18:21;;;;;;;25.42;4.38;;;18.40;86.70;;;;;;5011913;28;20030;-80
2021/08/26 06:20:48;;;;;;;27.77;4.53;;;18.40;86.90;;;;;;4997332;28;20389;-80
2021/08/26 06:23:14;;;;;;;20.30;3.83;;;18.40;87.20;;;;;;5006579;28;20041;-80
2021/08/26 06:25:40;;;;;;;24.02;4.18;;;18.40;87.30;;;;;;4995002;28;20085;-84
2021/08/26 06:28:06;;;;;;;20.08;3.85;;;18.50;87.70;;;;;;4996386;28;20058;-84
2021/08/26 06:30:32;;;;;;;23.08;4.07;;;18.50;87.70;;;;;;5011868;28;20037;-71
2021/08/26 06:32:58;;;;;;;21.35;4.70;;;18.50;87.60;;;;;;5007041;28;20397;-78
2021/08/26 06:35:26;;;;;;;26.20;5.55;;;18.60;87.80;;;;;;5005656;28;20053;-77
2021/08/26 06:37:52;;;;;;;23.00;4.88;;;18.60;87.60;;;;;;5009395;28;20453;-77
2021/08/26 06:40:21;;;;;;;26.55;5.18;;;18.70;87.80;;;;;;5010843;28;20022;-78
2021/08/26 06:42:46;;;;;;;31.75;4.85;;;18.70;87.90;;;;;;5010231;28;20128;-77
2021/08/26 06:45:12;;;;;;;25.67;4.95;;;18.80;87.90;;;;;;5011482;28;20129;-78
2021/08/26 06:47:37;;;;;;;24.33;4.55;;;18.80;88.00;;;;;;5004587;28;20037;-78
2021/08/26 06:50:04;;;;;;;22.83;4.22;;;18.80;88.10;;;;;;5003680;28;20030;-78
2021/08/26 06:52:29;;;;;;;25.10;4.30;;;18.80;87.80;;;;;;5006604;28;20038;-78
2021/08/26 06:54:55;;;;;;;34.50;4.32;;;18.90;87.80;;;;;;5006156;28;20079;-78
2021/08/26 06:57:21;;;;;;;30.48;4.53;;;18.90;87.50;;;;;;5011885;28;20087;-78
2021/08/26 06:59:49;;;;;;;18.27;4.03;;;18.90;87.50;;;;;;5013253;28;20137;-78
2021/08/26 07:02:15;;;;;;;30.27;4.47;;;19.00;86.60;;;;;;5011108;28;20145;-77
2021/08/26 07:04:40;;;;;;;16.63;3.70;;;18.90;86.80;;;;;;5012351;28;20077;-78
2021/08/26 07:07:06;;;;;;;26.33;4.18;;;19.00;86.50;;;;;;5009872;28;20037;-78
2021/08/26 07:09:32;;;;;;;26.92;4.10;;;19.00;86.60;;;;;;5011327;28;20041;-78
2021/08/26 07:11:57;;;;;;;23.95;4.13;;;19.00;86.90;;;;;;5011157;28;20026;-79
2021/08/26 07:14:23;;;;;;;21.77;3.72;;;19.00;86.60;;;;;;5005369;28;20042;-78
2021/08/26 07:16:49;;;;;;;23.92;4.10;;;19.10;86.50;;;;;;4993060;28;20081;-78
2021/08/26 07:19:14;;;;;;;25.17;3.90;;;19.10;86.50;;;;;;5010107;28;20033;-77
2021/08/26 07:21:41;;;;;;;23.58;3.78;;;19.10;86.20;;;;;;5012154;28;20034;-76
2021/08/26 07:24:07;;;;;;;26.95;4.22;;;19.10;85.70;;;;;;4998939;28;20441;-78
2021/08/26 07:26:32;;;;;;;19.48;4.90;;;19.10;85.90;;;;;;5011109;28;20050;-79
2021/08/26 07:28:58;;;;;;;22.27;4.30;;;19.20;85.80;;;;;;5001726;28;20070;-80
2021/08/26 07:31:24;;;;;;;23.60;3.75;;;19.20;85.80;;;;;;4996480;28;20033;-80
2021/08/26 07:33:50;;;;;;;27.98;4.93;;;19.20;85.50;;;;;;5002776;28;20034;-77
2021/08/26 07:36:16;;;;;;;20.92;3.40;;;19.20;85.70;;;;;;5007278;28;20038;-78
2021/08/26 07:38:42;;;;;;;14.02;3.10;;;19.20;85.20;;;;;;5010653;28;20034;-78
2021/08/26 07:41:08;;;;;;;24.77;5.60;;;19.30;85.10;;;;;;5012270;28;20779;-78
2021/08/26 07:43:36;;;;;;;27.05;3.42;;;19.30;85.40;;;;;;5011862;28;20049;-78
2021/08/26 07:46:02;;;;;;;28.10;4.30;;;19.30;85.40;;;;;;5010931;28;20033;-78
2021/08/26 07:48:28;;;;;;;20.08;4.20;;;19.40;85.20;;;;;;5011112;28;20069;-78
2021/08/26 07:50:57;;;;;;;20.67;3.20;;;19.40;85.20;;;;;;5004421;28;20058;-78
2021/08/26 07:53:23;;;;;;;20.08;3.53;;;19.40;85.10;;;;;;5006208;28;20374;-78
2021/08/26 07:55:48;;;;;;;26.33;4.13;;;19.40;85.20;;;;;;4998138;28;20117;-78
2021/08/26 07:58:14;;;;;;;24.55;4.28;;;19.40;85.40;;;;;;5010048;28;20112;-78
2021/08/26 08:00:40;;;;;;;19.77;4.38;;;19.50;85.40;;;;;;4999028;28;20053;-78
2021/08/26 08:03:05;;;;;;;15.15;3.40;;;19.50;85.40;;;;;;5011979;28;20042;-78
2021/08/26 08:05:31;;;;;;;14.85;2.88;;;19.50;85.00;;;;;;4995391;28;20033;-78
2021/08/26 08:07:58;;;;;;;19.17;3.35;;;19.50;84.90;;;;;;5002237;28;20393;-78
2021/08/26 08:10:24;;;;;;;21.13;4.22;;;19.60;85.00;;;;;;5010349;28;20065;-78
2021/08/26 08:12:49;;;;;;;25.63;4.15;;;19.60;85.20;;;;;;5004295;28;20054;-78
2021/08/26 08:15:15;;;;;;;29.85;3.97;;;19.60;85.30;;;;;;5018244;28;20525;-78
2021/08/26 08:17:41;;;;;;;17.15;3.80;;;19.60;85.80;;;;;;5013288;28;20065;-78
2021/08/26 08:20:09;;;;;;;23.25;3.47;;;19.70;85.20;;;;;;5005772;28;20177;-78
2021/08/26 08:22:35;;;;;;;22.58;4.18;;;19.80;85.20;;;;;;5009733;28;20049;-78
2021/08/26 08:25:01;;;;;;;25.95;4.45;;;19.70;85.30;;;;;;4997601;28;20046;-77
2021/08/26 08:27:26;;;;;;;24.73;4.35;;;19.80;85.30;;;;;;5008166;28;20072;-78
2021/08/26 08:29:52;;;;;;;18.05;3.15;;;19.80;85.00;;;;;;5004091;28;20033;-78
2021/08/26 08:32:18;;;;;;;24.63;3.67;;;19.80;84.70;;;;;;5014614;28;20033;-78
2021/08/26 08:34:43;;;;;;;20.27;3.67;;;19.90;84.50;;;;;;5012845;28;20033;-78
2021/08/26 08:37:10;;;;;;;23.08;4.32;;;19.90;84.40;;;;;;5014709;28;20129;-78
2021/08/26 08:39:36;;;;;;;25.10;5.22;;;19.90;84.50;;;;;;5014209;28;20442;-78
2021/08/26 08:42:01;;;;;;;21.02;3.50;;;19.90;84.40;;;;;;5014968;28;20526;-78
2021/08/26 08:44:27;;;;;;;19.98;3.65;;;20.00;84.30;;;;;;5013513;28;20448;-78
2021/08/26 08:46:57;;;;;;;21.60;4.60;;;20.00;84.20;;;;;;5001720;28;20036;-78
2021/08/26 08:49:24;;;;;;;29.65;4.40;;;20.00;84.20;;;;;;5013354;28;20383;-78
2021/08/26 08:51:51;;;;;;;19.02;3.00;;;20.00;84.40;;;;;;5013546;28;20033;-78
2021/08/26 08:54:18;;;;;;;16.13;3.75;;;20.10;84.30;;;;;;5013216;28;20409;-78
2021/08/26 08:56:47;;;;;;;20.83;4.93;;;20.10;84.30;;;;;;5013973;28;20033;-78
2021/08/26 08:59:12;;;;;;;24.33;4.07;;;20.10;84.40;;;;;;5005058;28;20057;-78
2021/08/26 09:01:38;;;;;;;15.93;2.75;;;20.20;84.20;;;;;;5013476;28;20441;-78
2021/08/26 09:04:06;;;;;;;17.58;4.15;;;20.20;84.30;;;;;;5012877;28;20033;-78
2021/08/26 09:06:40;;;;;;;23.50;4.80;;;20.20;84.20;;;;;;5004578;28;20034;-78
2021/08/26 09:09:07;;;;;;;14.85;3.35;;;20.20;84.10;;;;;;5014787;28;20061;-77
2021/08/26 09:11:33;;;;;;;21.80;3.80;;;20.20;84.00;;;;;;5014125;28;20045;-86
2021/08/26 09:14:13;;;;;;;28.05;3.65;;;20.30;83.90;;;;;;5011057;28;20096;-84
2021/08/26 09:16:42;;;;;;;26.58;4.00;;;20.30;84.20;;;;;;5015136;28;20477;-82
2021/08/26 09:19:19;;;;;;;20.10;3.88;;;20.40;84.50;;;;;;5015144;28;20482;-81
2021/08/26 09:21:46;;;;;;;20.20;3.67;;;20.30;84.20;;;;;;5010904;28;20080;-80
2021/08/26 09:24:12;;;;;;;23.52;3.83;;;20.40;84.00;;;;;;5013425;28;20103;-79
2021/08/26 09:26:41;;;;;;;22.30;4.22;;;20.50;84.00;;;;;;5008354;28;20121;-79
2021/08/26 09:29:10;;;;;;;18.73;3.10;;;20.50;84.00;;;;;;5012408;28;20109;-79
2021/08/26 09:31:36;;;;;;;18.40;3.17;;;20.50;83.80;;;;;;5008224;28;20392;-79
2021/08/26 09:34:10;;;;;;;18.23;3.65;;;20.60;83.90;;;;;;5014374;28;20112;-79
2021/08/26 09:36:56;;;;;;;20.98;3.88;;;20.60;83.70;;;;;;5010388;28;20042;-81
2021/08/26 09:39:24;;;;;;;15.38;2.72;;;20.60;83.50;;;;;;4998886;28;20432;-80
2021/08/26 09:41:59;;;;;;;18.48;3.00;;;20.60;83.10;;;;;;5013997;28;20121;-82
2021/08/26 09:44:34;;;;;;;16.50;3.05;;;20.60;83.00;;;;;;5000490;28;20104;-81
2021/08/26 09:47:02;;;;;;;17.90;2.85;;;20.60;82.60;;;;;;5005311;28;20096;-81
2021/08/26 09:49:29;;;;;;;21.92;3.10;;;20.70;81.90;;;;;;5010065;28;20053;-80
2021/08/26 09:52:11;;;;;;;11.80;2.22;;;20.70;81.00;;;;;;5011222;28;20030;-79
2021/08/26 09:54:46;;;;;;;9.55;2.10;;;20.70;81.20;;;;;;5008407;28;20053;-80
2021/08/26 09:57:41;;;;;;;12.88;3.15;;;20.70;81.30;;;;;;5004967;28;20030;-81
2021/08/26 10:00:07;;;;;;;18.52;3.00;;;20.70;81.30;;;;;;5001294;28;20084;-82
2021/08/26 10:02:47;;;;;;;17.23;2.70;;;20.70;80.50;;;;;;5006057;28;20046;-82
2021/08/26 10:05:14;;;;;;;15.90;2.97;;;20.70;81.00;;;;;;5011209;28;20026;-82
2021/08/26 10:07:41;;;;;;;15.75;2.05;;;20.80;80.70;;;;;;5013160;28;20038;-83
2021/08/26 10:10:08;;;;;;;7.63;1.90;;;20.80;80.20;;;;;;4997993;28;20101;-81
2021/08/26 10:12:34;;;;;;;10.93;2.35;;;20.80;79.80;;;;;;5013581;28;20030;-81
2021/08/26 10:14:59;;;;;;;13.18;2.00;;;20.80;80.40;;;;;;5012675;28;20060;-81
2021/08/26 10:17:25;;;;;;;15.77;2.25;;;20.90;81.10;;;;;;5011147;28;20892;-83
2021/08/26 10:19:52;;;;;;;8.80;1.70;;;20.90;81.30;;;;;;5006148;28;20029;-88
2021/08/26 10:22:17;;;;;;;13.15;2.03;;;20.90;81.20;;;;;;5013415;28;20479;-82
2021/08/26 10:24:43;;;;;;;7.32;1.40;;;20.90;81.30;;;;;;5012307;28;20069;-84
2021/08/26 10:27:18;;;;;;;15.60;1.85;;;21.00;81.10;;;;;;5004831;28;20119;-83
2021/08/26 10:29:45;;;;;;;10.10;1.30;;;21.00;81.00;;;;;;4997305;28;20030;-82
2021/08/26 10:32:17;;;;;;;6.85;1.10;;;21.00;81.10;;;;;;5004102;28;20025;-82
2021/08/26 10:35:02;;;;;;;7.80;1.48;;;21.10;80.40;;;;;;4998078;28;20038;-82
2021/08/26 10:37:27;;;;;;;4.68;1.00;;;21.10;80.70;;;;;;5004022;28;20356;-82
2021/08/26 10:39:53;;;;;;;5.32;1.35;;;21.10;80.40;;;;;;5001199;28;20034;-81
2021/08/26 10:42:23;;;;;;;6.18;1.38;;;21.10;80.40;;;;;;4998922;28;20060;-81
2021/08/26 10:44:57;;;;;;;5.70;1.15;;;21.10;80.00;;;;;;5004827;28;20101;-81
2021/08/26 10:47:23;;;;;;;2.38;0.85;;;21.10;80.20;;;;;;4997659;28;20030;-81
2021/08/26 10:50:21;;;;;;;3.08;0.90;;;21.10;80.00;;;;;;5004848;28;20084;-82
2021/08/26 10:53:02;;;;;;;7.50;1.00;;;21.10;79.70;;;;;;5002230;28;20398;-82
2021/08/26 10:55:33;;;;;;;5.32;1.00;;;21.20;78.90;;;;;;4999667;28;20113;-82
2021/08/26 10:58:23;;;;;;;4.88;0.85;;;21.20;78.40;;;;;;5002072;28;20390;-82
2021/08/26 11:01:03;;;;;;;6.18;0.77;;;21.20;78.80;;;;;;5004350;28;20034;-82
2021/08/26 11:03:34;;;;;;;4.80;1.00;;;21.30;79.00;;;;;;4998023;28;20120;-82
2021/08/26 11:06:09;;;;;;;7.50;1.10;;;21.30;79.20;;;;;;5000223;28;20049;-82
2021/08/26 11:08:35;;;;;;;4.95;0.88;;;21.20;79.00;;;;;;5004577;28;20034;-82
2021/08/26 11:11:45;;;;;;;3.97;0.90;;;21.20;79.20;;;;;;5001727;28;20025;-83
2021/08/26 11:14:23;;;;;;;6.57;1.20;;;21.20;78.50;;;;;;5011436;28;20390;-85
2021/08/26 11:16:57;;;;;;;3.03;1.00;;;21.20;78.40;;;;;;5011733;28;20709;-82
2021/08/26 11:19:34;;;;;;;6.75;0.98;;;21.30;79.30;;;;;;5002435;28;20038;-83
2021/08/26 11:22:05;;;;;;;2.70;1.17;;;21.30;79.10;;;;;;4998711;28;20378;-83
2021/08/26 11:24:34;;;;;;;2.78;0.75;;;21.30;78.70;;;;;;5007792;28;20128;-83
2021/08/26 11:27:04;;;;;;;2.83;0.90;;;21.30;78.20;;;;;;4996598;28;20026;-84
2021/08/26 11:29:37;;;;;;;7.32;2.15;;;21.30;77.30;;;;;;4996188;28;20448;-83
2021/08/26 11:32:06;;;;;;;7.95;1.08;;;21.30;77.30;;;;;;4995722;28;20057;-84
2021/08/26 11:34:45;;;;;;;4.43;0.90;;;21.30;77.40;;;;;;5003656;28;20033;-81
2021/08/26 11:37:22;;;;;;;8.88;0.98;;;21.30;79.20;;;;;;5008726;28;20036;-84
2021/08/26 11:40:00;;;;;;;5.18;1.42;;;21.40;78.40;;;;;;5005760;28;20080;-84
2021/08/26 11:42:47;;;;;;;6.00;1.20;;;21.40;78.80;;;;;;4997641;28;20038;-84
2021/08/26 11:45:40;;;;;;;6.78;1.40;;;21.40;78.20;;;;;;4999773;28;20041;-85
2021/08/26 11:48:06;;;;;;;8.45;1.15;;;21.40;78.00;;;;;;5000990;28;20033;-84
2021/08/26 11:50:34;;;;;;;10.52;1.50;;;21.40;78.00;;;;;;5009374;28;20022;-77
2021/08/26 11:53:03;;;;;;;6.88;1.33;;;21.40;78.90;;;;;;5000518;28;20030;-78
2021/08/26 11:55:34;;;;;;;5.05;0.82;;;21.40;77.70;;;;;;5002096;28;20125;-78
2021/08/26 11:58:11;;;;;;;5.07;0.88;;;21.40;77.70;;;;;;5001712;28;20034;-78
2021/08/26 12:00:46;;;;;;;3.40;0.80;;;21.40;77.70;;;;;;5000071;28;20022;-78
2021/08/26 12:03:12;;;;;;;4.03;0.80;;;21.40;77.10;;;;;;5002275;28;20042;-79
2021/08/26 12:05:39;;;;;;;4.20;0.98;;;21.50;77.40;;;;;;4998431;28;20034;-78
2021/08/26 12:08:06;;;;;;;4.35;1.27;;;21.50;77.70;;;;;;5001779;28;20034;-94
2021/08/26 12:10:43;;;;;;;5.63;1.00;;;21.50;76.90;;;;;;5010934;28;20088;-82
2021/08/26 12:13:13;;;;;;;5.60;1.10;;;21.50;73.90;;;;;;5009419;28;20045;-87
2021/08/26 12:15:46;;;;;;;7.05;1.20;;;21.50;75.60;;;;;;5001569;28;20037;-84
2021/08/26 12:18:14;;;;;;;4.00;1.10;;;21.60;75.00;;;;;;5004359;28;20033;-78
2021/08/26 12:20:46;;;;;;;7.00;1.38;;;21.60;75.40;;;;;;4999749;28;20042;-78
2021/08/26 12:23:19;;;;;;;3.75;0.60;;;21.60;74.10;;;;;;5010409;28;20158;-78
2021/08/26 12:26:02;;;;;;;;;;;21.60;73.20;;;;;;5007952;28;20054;-78
2021/08/26 12:28:32;;;;;;;5.78;1.35;;;21.60;76.20;;;;;;4999747;28;19910;-80
2021/08/26 12:30:58;;;;;;;4.57;1.50;;;21.60;73.10;;;;;;4993780;28;20034;-79
2021/08/26 12:33:23;;;;;;;5.05;0.93;;;21.60;72.70;;;;;;4997462;28;20019;-80
2021/08/26 12:35:51;;;;;;;5.32;1.00;;;21.60;73.10;;;;;;5008300;28;20096;-81
2021/08/26 12:38:36;;;;;;;6.90;1.00;;;21.60;71.90;;;;;;5011503;28;20036;-81
2021/08/26 12:41:08;;;;;;;6.85;1.00;;;21.60;72.50;;;;;;5005841;28;20379;-81
2021/08/26 12:43:41;;;;;;;4.15;2.20;;;21.70;72.40;;;;;;5005373;28;20045;-81
2021/08/26 12:46:09;;;;;;;1.98;0.70;;;21.70;72.90;;;;;;5001273;28;20033;-82